Wilson Gaeta — 8PTS — position and weather

sailwx.info

Track history (hours):
 
Tides and Currents Weather Stations Pressure Air Temp Water Temp Dewpoint Dewpoint Depression Visibility Wind Speed Wind Dir Waves Ship Positions

Wilson Gaeta

Last reported at 2016-Jul-22 12:25 UTC. Time now 2016-Jul-23 11:13 UTC.
Position N 58°20' E 005°01'.

Length 88 m; draft 5.3 m.

Type: Ship. MMSI: 314237000.

Date/timePositionNaut miles runAvg speedWind from/ knotsBaromVisibWave heightAir tempDewpointWater temp
2016-Jul-22 12:25N 58°20' E 005°01'7 8.4
2016-Jul-22 11:33N 58°27' E 004°59'8 8.1
2016-Jul-22 10:34N 58°35' E 004°56'8 8.1
2016-Jul-22 09:34N 58°43' E 004°53'9 8.8
2016-Jul-22 08:34N 58°52' E 004°49'9 8.9
2016-Jul-22 07:33N 59°01' E 004°46'9 8.8
2016-Jul-22 06:33N 59°09' E 004°43'291 7.7
2016-Jul-20 16:33N 63°31' E 009°08'1010.6
2016-Jul-20 15:33N 63°36' E 009°29'9 8.7
2016-Jul-20 14:33N 63°37' E 009°48'1110.9
2016-Jul-20 13:33N 63°28' E 010°02'1010.4
2016-Jul-20 12:33N 63°29' E 010°25'1110.7
2016-Jul-20 11:33N 63°38' E 010°39'1110.7
2016-Jul-20 10:33N 63°45' E 010°58'19 0.6
2016-Jul-19 04:33N 63°33' E 010°23'1111.2
2016-Jul-19 03:33N 63°29' E 009°60'1110.9
2016-Jul-19 02:33N 63°38' E 009°46'8 8.1
2016-Jul-19 01:33N 63°40' E 009°29'0 0.0
2016-Jul-17 18:33N 63°39' E 009°29'1110.5
2016-Jul-17 17:32N 63°32' E 009°12'307 7.8
2016-Jul-16 02:12N 58°52' E 004°49'1010.2
2016-Jul-16 01:15N 58°43' E 004°53'710.0
2016-Jul-16 00:33N 58°36' E 004°55'257 7.3
2016-Jul-14 13:25N 54°19' E 005°14'6 6.9
2016-Jul-14 12:32N 54°13' E 005°12'7 7.1
2016-Jul-14 11:33N 54°06' E 005°10'7 7.2
2016-Jul-14 10:33N 53°60' E 005°05'8 7.3
2016-Jul-14 09:30N 53°52' E 005°01'86 7.8
2016-Jul-13 22:33N 52°30' E 004°19'9 8.7
2016-Jul-13 21:34N 52°28' E 004°32'3 3.2
2016-Jul-13 20:34N 52°28' E 004°38'10 9.7
2016-Jul-13 19:34N 52°24' E 004°52'1 0.5
2016-Jul-13 18:32N 52°24' E 004°52'0 0.0
2016-Jul-13 17:32N 52°24' E 004°52'0 0.0
2016-Jul-13 16:32N 52°24' E 004°52'0 0.0
2016-Jul-13 15:32N 52°24' E 004°52'0 0.0
2016-Jul-13 14:32N 52°24' E 004°52'0 0.0
2016-Jul-13 13:32N 52°24' E 004°52'0 0.3
2016-Jul-13 12:33N 52°24' E 004°52'0 0.3
2016-Jul-13 11:32N 52°24' E 004°52'0 0.0
2016-Jul-13 10:32N 52°24' E 004°52'0 0.0
2016-Jul-13 09:32N 52°24' E 004°52'0 0.0
2016-Jul-13 08:32N 52°24' E 004°52'0 0.0
2016-Jul-13 07:32N 52°24' E 004°52'0 0.0
2016-Jul-13 06:32N 52°24' E 004°52'0 0.0
2016-Jul-13 05:32N 52°24' E 004°52'0 0.0
2016-Jul-13 04:32N 52°24' E 004°52'0 0.0
2016-Jul-13 03:29N 52°24' E 004°52'0 0.0
2016-Jul-13 02:32N 52°24' E 004°52'0 0.0
2016-Jul-13 01:32N 52°24' E 004°52'0 0.0
2016-Jul-13 00:32N 52°24' E 004°52'0 0.0
2016-Jul-12 23:32N 52°24' E 004°52'0 0.0
2016-Jul-12 22:32N 52°24' E 004°52'0 0.0
2016-Jul-12 21:32N 52°24' E 004°52'0 0.0
2016-Jul-12 20:32N 52°24' E 004°52'0 0.0
2016-Jul-12 19:32N 52°24' E 004°52'1 0.8
2016-Jul-12 18:34N 52°25' E 004°52'2 1.9
2016-Jul-12 17:32N 52°25' E 004°49'0 0.0
2016-Jul-12 16:32N 52°25' E 004°49'0 0.0
2016-Jul-12 15:32N 52°25' E 004°49'0 0.0
2016-Jul-12 14:32N 52°25' E 004°49'0 0.0
2016-Jul-12 13:32N 52°25' E 004°49'0 0.0
2016-Jul-12 12:32N 52°25' E 004°49'  
Track history (hours):
 
Tides and Currents Weather Stations Pressure Air Temp Water Temp Dewpoint Dewpoint Depression Visibility Wind Speed Wind Dir Waves Ship Positions

Wilson Gaeta

Last reported at 2016-Jul-22 12:25 UTC. Time now 2016-Jul-23 11:13 UTC.
Position N 58°20' E 005°01'.

Length 88 m; draft 5.3 m.

Type: Ship. MMSI: 314237000.

Date/timePositionNaut miles runAvg speedWind from/ knotsBaromVisibWave heightAir tempDewpointWater temp
2016-Jul-22 12:25N 58°20' E 005°01'7 8.4
2016-Jul-22 11:33N 58°27' E 004°59'8 8.1
2016-Jul-22 10:34N 58°35' E 004°56'8 8.1
2016-Jul-22 09:34N 58°43' E 004°53'9 8.8
2016-Jul-22 08:34N 58°52' E 004°49'9 8.9
2016-Jul-22 07:33N 59°01' E 004°46'9 8.8
2016-Jul-22 06:33N 59°09' E 004°43'291 7.7
2016-Jul-20 16:33N 63°31' E 009°08'1010.6
2016-Jul-20 15:33N 63°36' E 009°29'9 8.7
2016-Jul-20 14:33N 63°37' E 009°48'1110.9
2016-Jul-20 13:33N 63°28' E 010°02'1010.4
2016-Jul-20 12:33N 63°29' E 010°25'1110.7
2016-Jul-20 11:33N 63°38' E 010°39'1110.7
2016-Jul-20 10:33N 63°45' E 010°58'19 0.6
2016-Jul-19 04:33N 63°33' E 010°23'1111.2
2016-Jul-19 03:33N 63°29' E 009°60'1110.9
2016-Jul-19 02:33N 63°38' E 009°46'8 8.1
2016-Jul-19 01:33N 63°40' E 009°29'0 0.0
2016-Jul-17 18:33N 63°39' E 009°29'1110.5
2016-Jul-17 17:32N 63°32' E 009°12'307 7.8
2016-Jul-16 02:12N 58°52' E 004°49'1010.2
2016-Jul-16 01:15N 58°43' E 004°53'710.0
2016-Jul-16 00:33N 58°36' E 004°55'257 7.3
2016-Jul-14 13:25N 54°19' E 005°14'6 6.9
2016-Jul-14 12:32N 54°13' E 005°12'7 7.1
2016-Jul-14 11:33N 54°06' E 005°10'7 7.2
2016-Jul-14 10:33N 53°60' E 005°05'8 7.3
2016-Jul-14 09:30N 53°52' E 005°01'86 7.8
2016-Jul-13 22:33N 52°30' E 004°19'9 8.7
2016-Jul-13 21:34N 52°28' E 004°32'3 3.2
2016-Jul-13 20:34N 52°28' E 004°38'10 9.7
2016-Jul-13 19:34N 52°24' E 004°52'1 0.5
2016-Jul-13 18:32N 52°24' E 004°52'0 0.0
2016-Jul-13 17:32N 52°24' E 004°52'0 0.0
2016-Jul-13 16:32N 52°24' E 004°52'0 0.0
2016-Jul-13 15:32N 52°24' E 004°52'0 0.0
2016-Jul-13 14:32N 52°24' E 004°52'0 0.0
2016-Jul-13 13:32N 52°24' E 004°52'0 0.3
2016-Jul-13 12:33N 52°24' E 004°52'0 0.3
2016-Jul-13 11:32N 52°24' E 004°52'0 0.0
2016-Jul-13 10:32N 52°24' E 004°52'0 0.0
2016-Jul-13 09:32N 52°24' E 004°52'0 0.0
2016-Jul-13 08:32N 52°24' E 004°52'0 0.0
2016-Jul-13 07:32N 52°24' E 004°52'0 0.0
2016-Jul-13 06:32N 52°24' E 004°52'0 0.0
2016-Jul-13 05:32N 52°24' E 004°52'0 0.0
2016-Jul-13 04:32N 52°24' E 004°52'0 0.0
2016-Jul-13 03:29N 52°24' E 004°52'0 0.0
2016-Jul-13 02:32N 52°24' E 004°52'0 0.0
2016-Jul-13 01:32N 52°24' E 004°52'0 0.0
2016-Jul-13 00:32N 52°24' E 004°52'0 0.0
2016-Jul-12 23:32N 52°24' E 004°52'0 0.0
2016-Jul-12 22:32N 52°24' E 004°52'0 0.0
2016-Jul-12 21:32N 52°24' E 004°52'0 0.0
2016-Jul-12 20:32N 52°24' E 004°52'0 0.0
2016-Jul-12 19:32N 52°24' E 004°52'1 0.8
2016-Jul-12 18:34N 52°25' E 004°52'2 1.9
2016-Jul-12 17:32N 52°25' E 004°49'0 0.0
2016-Jul-12 16:32N 52°25' E 004°49'0 0.0
2016-Jul-12 15:32N 52°25' E 004°49'0 0.0
2016-Jul-12 14:32N 52°25' E 004°49'0 0.0
2016-Jul-12 13:32N 52°25' E 004°49'0 0.0
2016-Jul-12 12:32N 52°25' E 004°49'  

Dump ship's entire track history